createdAt,value
2016-06-04T00:00:11.698Z,27
2016-06-04T00:00:24.292Z,27
2016-06-04T00:00:37.089Z,26
2016-06-04T00:00:49.841Z,26
2016-06-04T00:01:02.497Z,27
2016-06-04T00:01:15.232Z,26
2016-06-04T00:01:28.013Z,27
2016-06-04T00:01:40.766Z,27
2016-06-04T00:01:53.422Z,25
2016-06-04T00:02:06.156Z,26
2016-06-04T00:02:18.750Z,25
2016-06-04T00:02:28.766Z,25
2016-06-04T00:02:41.377Z,26
2016-06-04T00:02:54.112Z,26
2016-06-04T00:03:06.549Z,26
2016-06-04T00:03:19.299Z,26
2016-06-04T00:03:32.049Z,26
2016-06-04T00:03:44.819Z,26
2016-06-04T00:03:57.381Z,26
2016-06-04T00:04:10.131Z,24
2016-06-04T00:04:22.928Z,16
2016-06-04T00:04:35.756Z,25
2016-06-04T00:04:48.164Z,26
2016-06-04T00:05:00.883Z,26
2016-06-04T00:05:13.633Z,25
2016-06-04T00:05:26.446Z,25
2016-06-04T00:05:39.167Z,25
2016-06-04T00:05:51.746Z,24
2016-06-04T00:06:04.496Z,26
2016-06-04T00:06:17.246Z,24
2016-06-04T00:06:29.980Z,25
2016-06-04T00:06:42.702Z,25
2016-06-04T00:06:55.436Z,25
2016-06-04T00:07:08.202Z,25
2016-06-04T00:07:20.952Z,25
2016-06-04T00:07:33.670Z,25
2016-06-04T00:07:46.251Z,25
2016-06-04T00:07:58.985Z,25
2016-06-04T00:08:11.766Z,25
2016-06-04T00:08:24.329Z,25
2016-06-04T00:08:36.922Z,24
2016-06-04T00:08:49.707Z,24
2016-06-04T00:09:02.488Z,25
2016-06-04T00:09:15.207Z,25
2016-06-04T00:09:27.925Z,9
2016-06-04T00:09:40.678Z,24
2016-06-04T00:09:53.428Z,24
2016-06-04T00:10:06.178Z,14
2016-06-04T00:10:18.460Z,28
2016-06-04T00:10:31.178Z,10
2016-06-04T00:10:43.759Z,8
2016-06-04T00:10:53.993Z,11
2016-06-04T00:11:06.462Z,9
2016-06-04T00:11:16.712Z,11
2016-06-04T00:11:27.602Z,23
2016-06-04T00:11:38.714Z,25
2016-06-04T00:11:51.182Z,25
2016-06-04T00:12:01.479Z,24
2016-06-04T00:12:14.073Z,25
2016-06-04T00:12:26.792Z,24
2016-06-04T00:12:39.374Z,25
2016-06-04T00:12:52.124Z,25
2016-06-04T00:13:04.905Z,25
2016-06-04T00:13:17.702Z,25
2016-06-04T00:13:29.952Z,25
2016-06-04T00:13:42.688Z,29
2016-06-04T00:13:55.454Z,5
2016-06-04T00:14:08.204Z,4
2016-06-04T00:14:20.938Z,4
2016-06-04T00:14:33.517Z,4
2016-06-04T00:14:46.504Z,4
2016-06-04T00:14:59.316Z,4
2016-06-04T00:15:11.895Z,4
2016-06-04T00:15:24.629Z,4
2016-06-04T00:15:37.395Z,4
2016-06-04T00:15:50.162Z,4
2016-06-04T00:16:02.928Z,4
2016-06-04T00:16:15.647Z,4
2016-06-04T00:16:28.381Z,5
2016-06-04T00:16:41.118Z,4
2016-06-04T00:16:53.712Z,4
2016-06-04T00:17:06.431Z,4
2016-06-04T00:17:19.259Z,4
2016-06-04T00:17:32.071Z,4
2016-06-04T00:17:44.840Z,4
2016-06-04T00:17:57.434Z,5
2016-06-04T00:18:10.153Z,4
2016-06-04T00:18:22.981Z,4
2016-06-04T00:18:35.746Z,4
2016-06-04T00:18:48.498Z,4
2016-06-04T00:19:01.217Z,4
2016-06-04T00:19:14.155Z,4
2016-06-04T00:19:26.905Z,4
2016-06-04T00:19:39.518Z,4
2016-06-04T00:19:52.143Z,4
2016-06-04T00:20:04.909Z,4
2016-06-04T00:20:17.659Z,4
2016-06-04T00:20:30.409Z,4
2016-06-04T00:20:43.176Z,4
2016-06-04T00:20:55.911Z,4
2016-06-04T00:21:08.707Z,4
2016-06-04T00:21:21.473Z,4
2016-06-04T00:21:34.223Z,4
2016-06-04T00:21:46.945Z,4
2016-06-04T00:21:59.679Z,4
2016-06-04T00:22:12.429Z,4
2016-06-04T00:22:25.242Z,4
2016-06-04T00:22:37.962Z,4
2016-06-04T00:22:50.681Z,4
2016-06-04T00:23:03.431Z,4
2016-06-04T00:23:16.041Z,4
2016-06-04T00:23:28.759Z,4
2016-06-04T00:23:41.497Z,4
2016-06-04T00:23:54.262Z,4
2016-06-04T00:24:07.028Z,4
2016-06-04T00:24:19.653Z,4
2016-06-04T00:24:32.356Z,4
2016-06-04T00:24:45.093Z,4
2016-06-04T00:24:57.828Z,4
2016-06-04T00:25:10.609Z,4
2016-06-04T00:25:23.015Z,4
2016-06-04T00:25:35.593Z,4
2016-06-04T00:25:45.831Z,4
2016-06-04T00:25:56.268Z,4
2016-06-04T00:26:07.159Z,4
2016-06-04T00:26:19.971Z,4
2016-06-04T00:26:30.659Z,4
2016-06-04T00:26:41.177Z,4
2016-06-04T00:26:52.536Z,4
2016-06-04T00:27:03.114Z,4
2016-06-04T00:27:13.302Z,4
2016-06-04T00:27:25.927Z,4
2016-06-04T00:27:38.507Z,4
2016-06-04T00:27:51.241Z,4
2016-06-04T00:28:03.850Z,4
2016-06-04T00:28:14.288Z,4
2016-06-04T00:28:27.022Z,4
2016-06-04T00:28:39.604Z,4
2016-06-04T00:28:52.354Z,4
2016-06-04T00:29:05.089Z,4
2016-06-04T00:29:17.729Z,4
2016-06-04T00:29:30.308Z,4
2016-06-04T00:29:42.903Z,4
2016-06-04T00:29:55.810Z,4
2016-06-04T00:30:08.560Z,4
2016-06-04T00:30:20.981Z,4
2016-06-04T00:30:33.716Z,4
2016-06-04T00:30:46.469Z,4
2016-06-04T00:30:59.234Z,4
2016-06-04T00:31:11.984Z,4
2016-06-04T00:31:24.734Z,4
2016-06-04T00:31:37.172Z,4
2016-06-04T00:31:50.033Z,4
2016-06-04T00:32:02.877Z,4
2016-06-04T00:32:15.611Z,4
2016-06-04T00:32:28.299Z,4
2016-06-04T00:32:41.068Z,4
2016-06-04T00:32:53.833Z,4
2016-06-04T00:33:06.552Z,4
2016-06-04T00:33:19.396Z,4
2016-06-04T00:33:32.177Z,4
2016-06-04T00:33:44.930Z,4
2016-06-04T00:33:57.727Z,4
2016-06-04T00:34:10.461Z,4
2016-06-04T00:34:23.196Z,4
2016-06-04T00:34:35.774Z,5
2016-06-04T00:34:48.433Z,4
2016-06-04T00:35:01.011Z,4
2016-06-04T00:35:13.308Z,5
2016-06-04T00:35:25.917Z,5
2016-06-04T00:35:38.747Z,4
2016-06-04T00:35:51.169Z,4
2016-06-04T00:36:03.919Z,4
2016-06-04T00:36:16.701Z,5
2016-06-04T00:36:29.326Z,4
2016-06-04T00:36:42.094Z,5
2016-06-04T00:36:54.657Z,5
2016-06-04T00:37:07.422Z,4
2016-06-04T00:37:20.219Z,4
2016-06-04T00:37:33.329Z,4
2016-06-04T00:37:45.785Z,4
2016-06-04T00:37:58.535Z,4
2016-06-04T00:38:11.160Z,4
2016-06-04T00:38:23.925Z,4
2016-06-04T00:38:36.910Z,5
2016-06-04T00:38:49.913Z,5
2016-06-04T00:39:02.522Z,5
2016-06-04T00:39:15.319Z,5
2016-06-04T00:39:27.850Z,5
2016-06-04T00:39:40.602Z,5
2016-06-04T00:39:50.602Z,5
2016-06-04T00:40:03.415Z,4
2016-06-04T00:40:16.180Z,4
2016-06-04T00:40:28.758Z,4
2016-06-04T00:40:39.058Z,4
2016-06-04T00:40:49.730Z,4
2016-06-04T00:41:00.933Z,4
2016-06-04T00:41:15.277Z,4
2016-06-04T00:41:28.027Z,4
2016-06-04T00:41:39.280Z,4
2016-06-04T00:41:49.608Z,4
2016-06-04T00:42:02.421Z,4
2016-06-04T00:42:15.171Z,4
2016-06-04T00:42:27.921Z,4
2016-06-04T00:42:40.438Z,5
2016-06-04T00:42:53.016Z,5
2016-06-04T00:43:05.751Z,0
2016-06-04T00:43:18.360Z,0
2016-06-04T00:43:31.188Z,0
2016-06-04T00:43:43.926Z,0
2016-06-04T00:43:56.660Z,0
2016-06-04T00:44:09.410Z,0
2016-06-04T00:44:22.176Z,0
2016-06-04T00:44:35.473Z,0
2016-06-04T00:44:45.568Z,0
2016-06-04T00:44:58.021Z,0
2016-06-04T00:45:10.615Z,0
2016-06-04T00:45:23.443Z,0
2016-06-04T00:45:35.990Z,0
2016-06-04T00:45:48.588Z,0
2016-06-04T00:46:01.338Z,0
2016-06-04T00:46:13.760Z,0
2016-06-04T00:46:26.479Z,0
2016-06-04T00:46:39.197Z,0
2016-06-04T00:46:51.949Z,0
2016-06-04T00:47:04.699Z,0
2016-06-04T00:47:17.434Z,0
2016-06-04T00:47:30.012Z,0
2016-06-04T00:47:42.609Z,0
2016-06-04T00:47:55.359Z,0
2016-06-04T00:48:08.140Z,0
2016-06-04T00:48:20.687Z,0
2016-06-04T00:48:33.437Z,0
2016-06-04T00:48:46.048Z,0
2016-06-04T00:48:58.782Z,0
2016-06-04T00:49:11.501Z,0
2016-06-04T00:49:24.064Z,0
2016-06-04T00:49:36.814Z,0
2016-06-04T00:49:49.426Z,0
2016-06-04T00:50:02.129Z,0
2016-06-04T00:50:14.848Z,0
2016-06-04T00:50:27.598Z,0
2016-06-04T00:50:40.382Z,5
2016-06-04T00:50:52.992Z,5
2016-06-04T00:51:05.554Z,4
2016-06-04T00:51:18.132Z,4
2016-06-04T00:51:30.867Z,5
2016-06-04T00:51:43.634Z,5
2016-06-04T00:51:56.212Z,4
2016-06-04T00:52:08.931Z,5
2016-06-04T00:52:21.697Z,4
2016-06-04T00:52:34.462Z,4
2016-06-04T00:52:47.232Z,4
2016-06-04T00:52:59.966Z,4
2016-06-04T00:53:12.544Z,5
2016-06-04T00:53:25.357Z,36
2016-06-04T00:53:38.154Z,35
2016-06-04T00:53:50.718Z,35
2016-06-04T00:54:03.453Z,35
2016-06-04T00:54:16.203Z,34
2016-06-04T00:54:28.968Z,34
2016-06-04T00:54:41.689Z,35
2016-06-04T00:54:54.267Z,34
2016-06-04T00:55:06.861Z,18
2016-06-04T00:55:19.627Z,15
2016-06-04T00:55:32.345Z,21
2016-06-04T00:55:43.223Z,24
2016-06-04T00:55:53.333Z,32
2016-06-04T00:56:03.958Z,23
2016-06-04T00:56:13.958Z,23
2016-06-04T00:56:24.380Z,14
2016-06-04T00:56:37.286Z,15
2016-06-04T00:56:50.039Z,33
2016-06-04T00:56:59.961Z,33
2016-06-04T00:57:12.523Z,32
2016-06-04T00:57:25.101Z,32
2016-06-04T00:57:37.695Z,33
2016-06-04T00:57:50.464Z,33
2016-06-04T00:58:03.198Z,32
2016-06-04T00:58:15.932Z,33
2016-06-04T00:58:28.667Z,32
2016-06-04T00:58:41.431Z,32
2016-06-04T00:58:54.212Z,32
2016-06-04T00:59:06.931Z,32
2016-06-04T00:59:19.493Z,4
2016-06-04T00:59:32.259Z,5
2016-06-04T00:59:45.062Z,5
2016-06-04T00:59:57.796Z,5
2016-06-04T01:00:10.515Z,5
2016-06-04T01:00:23.265Z,5
2016-06-04T01:00:35.874Z,4
2016-06-04T01:00:48.690Z,5
2016-06-04T01:01:01.268Z,5
2016-06-04T01:01:13.847Z,5
2016-06-04T01:01:26.612Z,5
2016-06-04T01:01:39.362Z,5
2016-06-04T01:01:52.196Z,5
2016-06-04T01:02:04.759Z,5
2016-06-04T01:02:17.384Z,5
2016-06-04T01:02:30.165Z,5
2016-06-04T01:02:42.795Z,5
2016-06-04T01:02:55.357Z,5
2016-06-04T01:03:08.091Z,5
2016-06-04T01:03:20.873Z,5
2016-06-04T01:03:33.623Z,5
2016-06-04T01:03:46.369Z,5
2016-06-04T01:03:58.807Z,5
2016-06-04T01:04:11.541Z,5
2016-06-04T01:04:24.338Z,34
2016-06-04T01:04:37.057Z,34
2016-06-04T01:04:49.806Z,35
2016-06-04T01:05:02.541Z,34
2016-06-04T01:05:15.338Z,34
2016-06-04T01:05:28.088Z,34
2016-06-04T01:05:40.806Z,34
2016-06-04T01:05:53.556Z,34
2016-06-04T01:06:06.353Z,34
2016-06-04T01:06:19.118Z,34
2016-06-04T01:06:31.837Z,33
2016-06-04T01:06:44.585Z,33
2016-06-04T01:06:57.351Z,34
2016-06-04T01:07:10.117Z,34
2016-06-04T01:07:22.851Z,33
2016-06-04T01:07:35.570Z,33
2016-06-04T01:07:48.335Z,33
2016-06-04T01:08:01.100Z,33
2016-06-04T01:08:13.897Z,33
2016-06-04T01:08:26.616Z,33
2016-06-04T01:08:39.210Z,32
2016-06-04T01:08:52.002Z,32
2016-06-04T01:09:04.518Z,32
2016-06-04T01:09:17.252Z,32
2016-06-04T01:09:29.986Z,32
2016-06-04T01:09:42.571Z,32
2016-06-04T01:09:55.337Z,32
2016-06-04T01:10:07.821Z,32
2016-06-04T01:10:20.400Z,33
2016-06-04T01:10:32.978Z,32
2016-06-04T01:10:43.578Z,32
2016-06-04T01:10:53.938Z,32
2016-06-04T01:11:04.344Z,32
2016-06-04T01:11:15.110Z,32
2016-06-04T01:11:25.328Z,32
2016-06-04T01:11:35.422Z,32
2016-06-04T01:11:45.695Z,32
2016-06-04T01:11:58.476Z,32
2016-06-04T01:12:11.242Z,32
2016-06-04T01:12:24.007Z,31
2016-06-04T01:12:36.570Z,31
2016-06-04T01:12:49.311Z,31
2016-06-04T01:13:01.905Z,31
2016-06-04T01:13:14.671Z,32
2016-06-04T01:13:27.280Z,32
2016-06-04T01:13:39.858Z,32
2016-06-04T01:13:52.614Z,31
2016-06-04T01:14:05.364Z,32
2016-06-04T01:14:18.130Z,32
2016-06-04T01:14:30.864Z,32
2016-06-04T01:14:43.446Z,32
2016-06-04T01:14:56.227Z,32
2016-06-04T01:15:08.821Z,31
2016-06-04T01:15:21.415Z,31
2016-06-04T01:15:33.977Z,31
2016-06-04T01:15:46.716Z,31
2016-06-04T01:15:59.466Z,5
2016-06-04T01:16:11.763Z,5
2016-06-04T01:16:24.481Z,5
2016-06-04T01:16:37.325Z,5
2016-06-04T01:16:50.110Z,5
2016-06-04T01:17:02.860Z,5
2016-06-04T01:17:15.439Z,5
2016-06-04T01:17:28.157Z,5
2016-06-04T01:17:40.923Z,5
2016-06-04T01:17:53.662Z,5
2016-06-04T01:18:06.428Z,5
2016-06-04T01:18:18.990Z,5
2016-06-04T01:18:31.756Z,5
2016-06-04T01:18:44.493Z,5
2016-06-04T01:18:57.243Z,5
2016-06-04T01:19:09.962Z,5
2016-06-04T01:19:22.556Z,5
2016-06-04T01:19:35.322Z,5
2016-06-04T01:19:48.075Z,5
2016-06-04T01:20:00.871Z,5
2016-06-04T01:20:13.606Z,5
2016-06-04T01:20:26.028Z,5
2016-06-04T01:20:38.793Z,5
2016-06-04T01:20:51.438Z,0
2016-06-04T01:21:04.172Z,0
2016-06-04T01:21:16.907Z,0
2016-06-04T01:21:29.688Z,0
2016-06-04T01:21:42.438Z,0
2016-06-04T01:21:55.160Z,0
2016-06-04T01:22:07.894Z,0
2016-06-04T01:22:20.628Z,0
2016-06-04T01:22:33.425Z,0
2016-06-04T01:22:46.163Z,0
2016-06-04T01:22:58.897Z,0
2016-06-04T01:23:11.491Z,0
2016-06-04T01:23:24.225Z,0
2016-06-04T01:23:36.975Z,0
2016-06-04T01:23:49.697Z,0
2016-06-04T01:24:02.134Z,0
2016-06-04T01:24:14.759Z,0
2016-06-04T01:24:27.369Z,0
2016-06-04T01:24:40.103Z,0
2016-06-04T01:24:52.684Z,0
2016-06-04T01:25:05.450Z,0
2016-06-04T01:25:18.184Z,0
2016-06-04T01:25:30.966Z,0
2016-06-04T01:25:44.500Z,0
2016-06-04T01:25:54.547Z,0
2016-06-04T01:26:05.687Z,0
2016-06-04T01:26:16.344Z,0
2016-06-04T01:26:28.859Z,0
2016-06-04T01:26:39.140Z,0
2016-06-04T01:26:52.565Z,0
2016-06-04T01:27:02.768Z,0
2016-06-04T01:27:15.565Z,0
2016-06-04T01:27:28.472Z,0
2016-06-04T01:27:41.393Z,0
2016-06-04T01:27:53.990Z,0
2016-06-04T01:28:06.568Z,0
2016-06-04T01:28:19.303Z,0
2016-06-04T01:28:32.037Z,0
2016-06-04T01:28:44.837Z,0
2016-06-04T01:28:57.118Z,0
2016-06-04T01:29:09.853Z,0
2016-06-04T01:29:22.603Z,0
2016-06-04T01:29:35.353Z,0
2016-06-04T01:29:48.137Z,0
2016-06-04T01:30:00.715Z,0
2016-06-04T01:30:13.137Z,0
2016-06-04T01:30:25.887Z,0
2016-06-04T01:30:38.481Z,0
2016-06-04T01:30:51.234Z,0
2016-06-04T01:31:03.812Z,0
2016-06-04T01:31:16.546Z,0
2016-06-04T01:31:29.312Z,0
2016-06-04T01:31:42.062Z,0
2016-06-04T01:31:54.782Z,0
2016-06-04T01:32:07.376Z,0
2016-06-04T01:32:20.111Z,0
2016-06-04T01:32:32.564Z,0
2016-06-04T01:32:45.410Z,0
2016-06-04T01:32:57.989Z,0
2016-06-04T01:33:10.723Z,0
2016-06-04T01:33:23.457Z,0
2016-06-04T01:33:36.239Z,0
2016-06-04T01:33:48.959Z,0
2016-06-04T01:34:01.709Z,0
2016-06-04T01:34:14.475Z,0
2016-06-04T01:34:27.241Z,0
2016-06-04T01:34:39.522Z,0
2016-06-04T01:34:52.245Z,0
2016-06-04T01:35:04.838Z,0
2016-06-04T01:35:17.588Z,0
2016-06-04T01:35:30.182Z,0
2016-06-04T01:35:42.760Z,0
2016-06-04T01:35:55.512Z,0
2016-06-04T01:36:08.278Z,0
2016-06-04T01:36:21.043Z,0
2016-06-04T01:36:33.778Z,0
2016-06-04T01:36:46.500Z,0
2016-06-04T01:36:59.312Z,0
2016-06-04T01:37:12.046Z,0
2016-06-04T01:37:24.781Z,0
2016-06-04T01:37:37.484Z,0
2016-06-04T01:37:50.065Z,0
2016-06-04T01:38:02.815Z,0
2016-06-04T01:38:15.581Z,0
2016-06-04T01:38:28.284Z,0
2016-06-04T01:38:41.003Z,0
2016-06-04T01:38:53.723Z,0
2016-06-04T01:39:06.317Z,0
2016-06-04T01:39:18.880Z,0
2016-06-04T01:39:31.583Z,0
2016-06-04T01:39:44.336Z,0
2016-06-04T01:39:57.070Z,0
2016-06-04T01:40:09.883Z,0
2016-06-04T01:40:21.789Z,0
2016-06-04T01:40:34.211Z,0
2016-06-04T01:40:45.557Z,0
2016-06-04T01:40:57.167Z,0
2016-06-04T01:41:07.964Z,0
2016-06-04T01:41:20.620Z,0
2016-06-04T01:41:32.557Z,0
2016-06-04T01:41:43.432Z,0
2016-06-04T01:41:54.169Z,0
2016-06-04T01:42:06.747Z,0
2016-06-04T01:42:19.450Z,0
2016-06-04T01:42:32.200Z,0
2016-06-04T01:42:44.937Z,0
2016-06-04T01:42:57.687Z,0
2016-06-04T01:43:10.406Z,0
2016-06-04T01:43:23.141Z,0
2016-06-04T01:43:35.875Z,0
2016-06-04T01:43:48.612Z,0
2016-06-04T01:44:01.331Z,0
2016-06-04T01:44:14.050Z,0
2016-06-04T01:44:26.769Z,0
2016-06-04T01:44:39.534Z,0
2016-06-04T01:44:52.271Z,0
2016-06-04T01:45:04.833Z,0
2016-06-04T01:45:17.567Z,0
2016-06-04T01:45:30.317Z,0
2016-06-04T01:45:43.146Z,0
2016-06-04T01:45:55.711Z,0
2016-06-04T01:46:08.430Z,0
2016-06-04T01:46:21.195Z,0
2016-06-04T01:46:33.961Z,0
2016-06-04T01:46:46.542Z,0
2016-06-04T01:46:58.792Z,0
2016-06-04T01:47:11.542Z,0
2016-06-04T01:47:24.292Z,0
2016-06-04T01:47:37.027Z,0
2016-06-04T01:47:49.748Z,0
2016-06-04T01:48:02.467Z,0
2016-06-04T01:48:15.217Z,0
2016-06-04T01:48:27.826Z,0
2016-06-04T01:48:40.530Z,0
2016-06-04T01:48:53.094Z,0
2016-06-04T01:49:05.844Z,0
2016-06-04T01:49:18.422Z,0
2016-06-04T01:49:31.125Z,0
2016-06-04T01:49:43.844Z,0
2016-06-04T01:49:56.597Z,0
2016-06-04T01:50:09.378Z,0
2016-06-04T01:50:22.097Z,0
2016-06-04T01:50:34.831Z,0
2016-06-04T01:50:47.255Z,0
2016-06-04T01:51:00.021Z,0
2016-06-04T01:51:12.630Z,0
2016-06-04T01:51:25.349Z,0
2016-06-04T01:51:38.052Z,0
2016-06-04T01:51:50.821Z,0
2016-06-04T01:52:03.555Z,0
2016-06-04T01:52:16.290Z,0
2016-06-04T01:52:28.993Z,0
2016-06-04T01:52:41.743Z,0
2016-06-04T01:52:54.480Z,0
2016-06-04T01:53:07.230Z,0
2016-06-04T01:53:19.949Z,0
2016-06-04T01:53:32.652Z,0
2016-06-04T01:53:45.404Z,0
2016-06-04T01:53:58.170Z,0
2016-06-04T01:54:10.904Z,0
2016-06-04T01:54:23.482Z,0
2016-06-04T01:54:36.201Z,0
2016-06-04T01:54:48.985Z,0
2016-06-04T01:55:01.751Z,0
2016-06-04T01:55:14.469Z,0
2016-06-04T01:55:27.032Z,0
2016-06-04T01:55:37.251Z,0
2016-06-04T01:55:48.863Z,0
2016-06-04T01:55:59.238Z,0
2016-06-04T01:56:09.613Z,0
2016-06-04T01:56:22.832Z,0
2016-06-04T01:56:34.129Z,0
2016-06-04T01:56:44.960Z,0
2016-06-04T01:56:55.069Z,0
2016-06-04T01:57:07.538Z,0
2016-06-04T01:57:20.116Z,0
2016-06-04T01:57:32.835Z,0
2016-06-04T01:57:45.572Z,0
2016-06-04T01:57:58.150Z,0
2016-06-04T01:58:10.947Z,0
2016-06-04T01:58:23.760Z,0
2016-06-04T01:58:36.478Z,0
2016-06-04T01:58:49.199Z,0
2016-06-04T01:59:01.949Z,0
2016-06-04T01:59:14.715Z,0
2016-06-04T01:59:27.434Z,0
2016-06-04T01:59:39.996Z,0
2016-06-04T01:59:52.764Z,0
2016-06-04T02:00:05.498Z,0
2016-06-04T02:00:18.217Z,0
2016-06-04T02:00:30.920Z,0
2016-06-04T02:00:43.639Z,0
2016-06-04T02:00:56.236Z,0
2016-06-04T02:01:08.986Z,0
2016-06-04T02:01:21.393Z,0
2016-06-04T02:01:34.127Z,0
2016-06-04T02:01:46.879Z,0
2016-06-04T02:01:59.535Z,0
2016-06-04T02:02:11.957Z,0
2016-06-04T02:02:24.520Z,0
2016-06-04T02:02:37.254Z,0
2016-06-04T02:02:50.022Z,0
2016-06-04T02:03:02.600Z,0
2016-06-04T02:03:15.303Z,0
2016-06-04T02:03:28.037Z,0
2016-06-04T02:03:40.803Z,0
2016-06-04T02:03:53.541Z,0
2016-06-04T02:04:06.244Z,0
2016-06-04T02:04:18.807Z,0
2016-06-04T02:04:31.541Z,0
2016-06-04T02:04:44.307Z,0
2016-06-04T02:04:57.043Z,0
2016-06-04T02:05:09.621Z,0
2016-06-04T02:05:22.371Z,0
2016-06-04T02:05:35.137Z,0
2016-06-04T02:05:47.905Z,0
2016-06-04T02:06:00.483Z,0
2016-06-04T02:06:13.045Z,0
2016-06-04T02:06:25.498Z,0
2016-06-04T02:06:38.248Z,0
2016-06-04T02:06:50.831Z,0
2016-06-04T02:07:03.549Z,0
2016-06-04T02:07:16.268Z,0
2016-06-04T02:07:28.862Z,0
2016-06-04T02:07:41.659Z,0
2016-06-04T02:07:54.239Z,0
2016-06-04T02:08:06.958Z,0
2016-06-04T02:08:19.567Z,0
2016-06-04T02:08:32.364Z,0
2016-06-04T02:08:45.085Z,0
2016-06-04T02:08:57.803Z,0
2016-06-04T02:09:10.538Z,0
2016-06-04T02:09:23.288Z,0
2016-06-04T02:09:35.897Z,0
2016-06-04T02:09:48.479Z,0
2016-06-04T02:10:01.198Z,0
2016-06-04T02:10:13.948Z,0
2016-06-04T02:10:26.573Z,0
2016-06-04T02:10:39.167Z,0
2016-06-04T02:10:52.170Z,0
2016-06-04T02:11:05.107Z,0
2016-06-04T02:11:15.154Z,0
2016-06-04T02:11:25.623Z,0
2016-06-04T02:11:36.529Z,0
2016-06-04T02:11:47.702Z,0
2016-06-04T02:11:58.233Z,0
2016-06-04T02:12:10.796Z,0
2016-06-04T02:12:23.374Z,0
2016-06-04T02:12:36.108Z,0
2016-06-04T02:12:48.878Z,0
2016-06-04T02:13:01.628Z,0
2016-06-04T02:13:14.378Z,0
2016-06-04T02:13:27.097Z,0
2016-06-04T02:13:39.690Z,0
2016-06-04T02:13:52.442Z,0
2016-06-04T02:14:05.255Z,0
2016-06-04T02:14:17.974Z,0
2016-06-04T02:14:30.583Z,0
2016-06-04T02:14:43.208Z,0
2016-06-04T02:14:56.023Z,0
2016-06-04T02:15:08.602Z,0
2016-06-04T02:15:21.180Z,0
2016-06-04T02:15:33.930Z,0
2016-06-04T02:15:46.682Z,0
2016-06-04T02:15:59.447Z,0
2016-06-04T02:16:12.010Z,0
2016-06-04T02:16:24.760Z,0
2016-06-04T02:16:37.510Z,0
2016-06-04T02:16:50.263Z,0
2016-06-04T02:17:02.685Z,0
2016-06-04T02:17:15.403Z,0
2016-06-04T02:17:28.169Z,0
2016-06-04T02:17:40.950Z,0
2016-06-04T02:17:53.766Z,0
2016-06-04T02:18:06.485Z,0
2016-06-04T02:18:19.219Z,0
2016-06-04T02:18:31.953Z,0
2016-06-04T02:18:44.547Z,0
2016-06-04T02:18:57.128Z,0
2016-06-04T02:19:09.878Z,0
2016-06-04T02:19:22.519Z,0
2016-06-04T02:19:35.316Z,0
2016-06-04T02:19:48.068Z,0
2016-06-04T02:20:00.771Z,0
2016-06-04T02:20:13.521Z,0
2016-06-04T02:20:26.271Z,0
2016-06-04T02:20:39.068Z,0
2016-06-04T02:20:51.633Z,0
2016-06-04T02:21:04.383Z,0
2016-06-04T02:21:17.133Z,0
2016-06-04T02:21:29.883Z,0
2016-06-04T02:21:42.289Z,0
2016-06-04T02:21:55.027Z,0
2016-06-04T02:22:07.792Z,0
2016-06-04T02:22:20.636Z,0
2016-06-04T02:22:33.199Z,0
2016-06-04T02:22:45.952Z,0
2016-06-04T02:22:58.686Z,0
2016-06-04T02:23:11.452Z,0
2016-06-04T02:23:24.061Z,0
2016-06-04T02:23:36.467Z,0
2016-06-04T02:23:49.064Z,0
2016-06-04T02:24:01.814Z,0
2016-06-04T02:24:14.564Z,0
2016-06-04T02:24:27.127Z,0
2016-06-04T02:24:39.736Z,0
2016-06-04T02:24:52.316Z,0
2016-06-04T02:25:05.082Z,0
2016-06-04T02:25:17.675Z,0
2016-06-04T02:25:30.254Z,0
2016-06-04T02:25:40.347Z,0
2016-06-04T02:25:53.146Z,0
2016-06-04T02:26:06.709Z,0
2016-06-04T02:26:17.334Z,0
2016-06-04T02:26:27.271Z,0
2016-06-04T02:26:37.334Z,0
2016-06-04T02:26:48.212Z,0
2016-06-04T02:26:59.087Z,0
2016-06-04T02:27:11.821Z,0
2016-06-04T02:27:24.587Z,0
2016-06-04T02:27:37.337Z,0
2016-06-04T02:27:50.058Z,0
2016-06-04T02:28:02.793Z,0
2016-06-04T02:28:15.543Z,0
2016-06-04T02:28:28.324Z,0
2016-06-04T02:28:41.090Z,0
2016-06-04T02:28:53.826Z,0
2016-06-04T02:29:06.576Z,0
2016-06-04T02:29:19.326Z,0
2016-06-04T02:29:32.107Z,0
2016-06-04T02:29:44.685Z,0
2016-06-04T02:29:57.251Z,0
2016-06-04T02:30:10.032Z,0
2016-06-04T02:30:22.798Z,0
2016-06-04T02:30:35.376Z,0
2016-06-04T02:30:47.957Z,0
2016-06-04T02:31:00.551Z,0
2016-06-04T02:31:13.301Z,0
2016-06-04T02:31:26.066Z,0
2016-06-04T02:31:38.645Z,0
2016-06-04T02:31:51.241Z,0
2016-06-04T02:32:03.991Z,0
2016-06-04T02:32:16.788Z,0
2016-06-04T02:32:29.429Z,0
2016-06-04T02:32:42.163Z,0
2016-06-04T02:32:54.900Z,0
2016-06-04T02:33:07.525Z,0
2016-06-04T02:33:20.118Z,0
2016-06-04T02:33:32.540Z,0
2016-06-04T02:33:45.275Z,0
2016-06-04T02:33:58.043Z,0
2016-06-04T02:34:10.809Z,0
2016-06-04T02:34:23.621Z,0
2016-06-04T02:34:36.340Z,0
2016-06-04T02:34:49.093Z,0
2016-06-04T02:35:01.859Z,0
2016-06-04T02:35:14.609Z,0
2016-06-04T02:35:27.343Z,0
2016-06-04T02:35:40.062Z,0
2016-06-04T02:35:52.830Z,0
2016-06-04T02:36:05.627Z,0
2016-06-04T02:36:18.362Z,0
2016-06-04T02:36:30.768Z,0
2016-06-04T02:36:43.534Z,0
2016-06-04T02:36:56.161Z,0
2016-06-04T02:37:08.911Z,0
2016-06-04T02:37:21.629Z,0
2016-06-04T02:37:34.207Z,0
2016-06-04T02:37:46.834Z,0
2016-06-04T02:37:59.678Z,0
2016-06-04T02:38:12.241Z,0
2016-06-04T02:38:24.975Z,0
2016-06-04T02:38:37.741Z,0
2016-06-04T02:38:50.370Z,0
2016-06-04T02:39:03.104Z,0
2016-06-04T02:39:15.823Z,0
2016-06-04T02:39:28.588Z,0
2016-06-04T02:39:41.385Z,0
2016-06-04T02:39:54.137Z,0
2016-06-04T02:40:06.715Z,0
2016-06-04T02:40:19.294Z,0
2016-06-04T02:40:32.075Z,0
2016-06-04T02:40:42.872Z,0
2016-06-04T02:40:55.500Z,0
2016-06-04T02:41:08.172Z,0
2016-06-04T02:41:18.453Z,0
2016-06-04T02:41:29.172Z,0
2016-06-04T02:41:39.937Z,0
2016-06-04T02:41:50.284Z,0
2016-06-04T02:42:02.971Z,0
2016-06-04T02:42:15.784Z,0
2016-06-04T02:42:28.518Z,0
2016-06-04T02:42:41.268Z,0
2016-06-04T02:42:54.036Z,0
2016-06-04T02:43:06.786Z,0
2016-06-04T02:43:19.395Z,0
2016-06-04T02:43:32.114Z,0
2016-06-04T02:43:44.864Z,0
2016-06-04T02:43:57.648Z,0
2016-06-04T02:44:10.476Z,0
2016-06-04T02:44:23.055Z,0
2016-06-04T02:44:35.789Z,0
2016-06-04T02:44:48.573Z,0
2016-06-04T02:45:01.370Z,0
2016-06-04T02:45:13.933Z,0
2016-06-04T02:45:26.667Z,0
2016-06-04T02:45:39.401Z,0
2016-06-04T02:45:52.185Z,0
2016-06-04T02:46:05.013Z,0
2016-06-04T02:46:17.747Z,0
2016-06-04T02:46:30.341Z,0
2016-06-04T02:46:43.106Z,0
2016-06-04T02:46:55.766Z,0
2016-06-04T02:47:08.594Z,0
2016-06-04T02:47:21.156Z,0
2016-06-04T02:47:33.906Z,0
2016-06-04T02:47:46.705Z,0
2016-06-04T02:47:59.518Z,0
2016-06-04T02:48:12.252Z,0
2016-06-04T02:48:25.002Z,0
2016-06-04T02:48:37.596Z,0
2016-06-04T02:48:50.364Z,0
2016-06-04T02:49:03.114Z,0
2016-06-04T02:49:15.849Z,0
2016-06-04T02:49:28.583Z,0
2016-06-04T02:49:41.364Z,0
2016-06-04T02:49:54.133Z,0
2016-06-04T02:50:06.883Z,0
2016-06-04T02:50:19.633Z,0
2016-06-04T02:50:32.399Z,0
2016-06-04T02:50:45.008Z,0
2016-06-04T02:50:57.730Z,0
2016-06-04T02:51:10.464Z,0
2016-06-04T02:51:23.245Z,0
2016-06-04T02:51:35.995Z,0
2016-06-04T02:51:48.747Z,0
2016-06-04T02:52:01.310Z,0
2016-06-04T02:52:14.060Z,0
2016-06-04T02:52:26.810Z,0
2016-06-04T02:52:39.654Z,0
2016-06-04T02:52:52.391Z,0
2016-06-04T02:53:05.125Z,0
2016-06-04T02:53:17.907Z,0
2016-06-04T02:53:30.657Z,0
2016-06-04T02:53:43.391Z,0
2016-06-04T02:53:55.957Z,0
2016-06-04T02:54:08.722Z,0
2016-06-04T02:54:21.488Z,0
2016-06-04T02:54:34.003Z,0
2016-06-04T02:54:46.738Z,0
2016-06-04T02:54:59.335Z,0
2016-06-04T02:55:12.100Z,0
2016-06-04T02:55:24.866Z,0
2016-06-04T02:55:38.163Z,0
2016-06-04T02:55:48.587Z,0
2016-06-04T02:55:59.837Z,0
2016-06-04T02:56:10.883Z,0
2016-06-04T02:56:23.837Z,0
2016-06-04T02:56:34.946Z,0
2016-06-04T02:56:45.915Z,0
2016-06-04T02:56:56.980Z,0
2016-06-04T02:57:09.590Z,0
2016-06-04T02:57:22.308Z,0
2016-06-04T02:57:35.043Z,0
2016-06-04T02:57:47.638Z,0
2016-06-04T02:58:00.388Z,0
2016-06-04T02:58:12.998Z,0
2016-06-04T02:58:25.717Z,0
2016-06-04T02:58:38.467Z,0
2016-06-04T02:58:51.079Z,0
2016-06-04T02:59:03.907Z,0
2016-06-04T02:59:16.485Z,0
2016-06-04T02:59:29.063Z,0
2016-06-04T02:59:41.673Z,0
2016-06-04T02:59:54.426Z,0
2016-06-04T03:00:07.160Z,0
2016-06-04T03:00:19.879Z,0
2016-06-04T03:00:32.457Z,0
2016-06-04T03:00:45.223Z,0
2016-06-04T03:00:57.944Z,0
2016-06-04T03:01:10.507Z,0
2016-06-04T03:01:23.241Z,0
2016-06-04T03:01:36.007Z,0
2016-06-04T03:01:48.759Z,0
2016-06-04T03:02:01.493Z,0
2016-06-04T03:02:14.056Z,0
2016-06-04T03:02:26.806Z,0
2016-06-04T03:02:39.540Z,0
2016-06-04T03:02:52.324Z,0
2016-06-04T03:03:05.043Z,0
2016-06-04T03:03:17.777Z,0
2016-06-04T03:03:30.512Z,0
2016-06-04T03:03:43.137Z,0
2016-06-04T03:03:55.859Z,0
2016-06-04T03:04:08.562Z,0